This is the latest recevied weather packets stored in our database for station/object XE2AD-5. If no packets are shown the sender has not sent any weather packets the latest 10 day(s).
| Time | Temp. | Humidity | Pressure | Rain* | Wind** | Luminosity | Snow |
|---|---|---|---|---|---|---|---|
| 1788090412 | 23.89° C | 45% | 811.1 hPa | - | - | - | - |
| 1788090263 | 23.89° C | 45% | 811.1 hPa | - | - | - | - |
| 1788086963 | 24.44° C | 45% | 811 hPa | - | - | - | - |
| 1788083663 | 24.44° C | 44% | 811.2 hPa | - | - | - | - |
| 1788080363 | 25° C | 44% | 811.1 hPa | - | - | - | - |
| 1788077249 | 25° C | 44% | 811.6 hPa | - | - | - | - |
| 1788077063 | 25° C | 44% | 811.6 hPa | - | - | - | - |
| 1788073762 | 25.56° C | 44% | 811.9 hPa | - | - | - | - |
| 1788070462 | 25.56° C | 42% | 812.2 hPa | - | - | - | - |
| 1788067162 | 26.11° C | 42% | 812.5 hPa | - | - | - | - |
| 1788063862 | 26.67° C | 42% | 811.9 hPa | - | - | - | - |
| 1788040761 | 27.22° C | 37% | 808.1 hPa | - | - | - | - |
| 1788037583 | 27.22° C | 38% | 808.7 hPa | - | - | - | - |
| 1788037461 | 27.22° C | 38% | 808.7 hPa | - | - | - | - |
| 1788034161 | 26.67° C | 38% | 810 hPa | - | - | - | - |
| 1788027560 | 25.56° C | 38% | 811.6 hPa | - | - | - | - |
| 1788024260 | 25.56° C | 40% | 812.2 hPa | - | - | - | - |
| 1788021098 | 24.44° C | 40% | 812.5 hPa | - | - | - | - |
| 1788020960 | 24.44° C | 40% | 812.5 hPa | - | - | - | - |
| 1788014360 | 24.44° C | 40% | 812.4 hPa | - | - | - | - |
| 1788004603 | 25° C | 39% | 811.4 hPa | - | - | - | - |
| 1788004459 | 25° C | 39% | 811.4 hPa | - | - | - | - |
| 1788001159 | 25.56° C | 38% | 811.1 hPa | - | - | - | - |
| 1787998610 | 25.56° C | 37% | 811.4 hPa | - | - | - | - |
| 1787997859 | 25.56° C | 37% | 811.4 hPa | - | - | - | - |
* Rain since midnight (hover to see other rain measurements)
** Current wind speed in m/s (hover to see current wind gust speed)